< < Back
Terminal Aerodrome Forecast


Current Version              Previous Versions:   1  2  3  4  5  6  7  8  9  

Terminal Aerodrome Forecast

946
FTUS42 KTAE 251120
TAFTLH
TAF
KTLH 251120Z 2512/2612 05005KT P6SM SKC
     FM251500 05010G15KT P6SM SCT060
     FM260000 06006KT P6SM SKC=



Latest METAR

348
SAUS80 KWBC 251100 RRB
MTRTLH
METAR KTLH 251053Z 00000KT 10SM FEW250 24/22 A3011 RMK AO2 SLP196
T02440222


USA.gov is the U.S. government's official web portal to all federal, state and local government web resources and services.